sensor_id;sensor_type;location;lat;lon;timestamp;P1;durP1;ratioP1;P2;durP2;ratioP2
12780;SDS011;6454;43.304;24.344;2023-01-28T00:00:32;9.77;;;7.70;;
12780;SDS011;6454;43.304;24.344;2023-01-28T00:03:01;11.20;;;7.90;;
12780;SDS011;6454;43.304;24.344;2023-01-28T00:05:27;12.73;;;8.83;;
12780;SDS011;6454;43.304;24.344;2023-01-28T00:07:55;10.33;;;8.40;;
12780;SDS011;6454;43.304;24.344;2023-01-28T00:10:22;11.70;;;8.70;;
12780;SDS011;6454;43.304;24.344;2023-01-28T00:12:48;11.83;;;8.80;;
12780;SDS011;6454;43.304;24.344;2023-01-28T00:15:16;12.93;;;9.80;;
12780;SDS011;6454;43.304;24.344;2023-01-28T00:17:43;12.10;;;9.30;;
12780;SDS011;6454;43.304;24.344;2023-01-28T00:20:11;11.37;;;8.77;;
12780;SDS011;6454;43.304;24.344;2023-01-28T00:22:38;12.07;;;9.53;;
12780;SDS011;6454;43.304;24.344;2023-01-28T00:25:05;13.07;;;8.77;;
12780;SDS011;6454;43.304;24.344;2023-01-28T00:27:32;13.03;;;8.67;;
12780;SDS011;6454;43.304;24.344;2023-01-28T00:29:59;10.23;;;7.90;;
12780;SDS011;6454;43.304;24.344;2023-01-28T00:32:26;9.07;;;7.27;;
12780;SDS011;6454;43.304;24.344;2023-01-28T00:34:52;9.90;;;7.73;;
12780;SDS011;6454;43.304;24.344;2023-01-28T00:37:20;9.87;;;8.50;;
12780;SDS011;6454;43.304;24.344;2023-01-28T00:39:48;9.97;;;8.10;;
12780;SDS011;6454;43.304;24.344;2023-01-28T00:42:15;8.83;;;7.47;;
12780;SDS011;6454;43.304;24.344;2023-01-28T00:44:42;10.07;;;8.00;;
12780;SDS011;6454;43.304;24.344;2023-01-28T00:47:09;12.10;;;8.50;;
12780;SDS011;6454;43.304;24.344;2023-01-28T00:49:35;10.73;;;8.10;;
12780;SDS011;6454;43.304;24.344;2023-01-28T00:52:02;10.57;;;8.20;;
12780;SDS011;6454;43.304;24.344;2023-01-28T00:54:31;11.13;;;8.60;;
12780;SDS011;6454;43.304;24.344;2023-01-28T00:56:57;10.60;;;8.53;;
12780;SDS011;6454;43.304;24.344;2023-01-28T00:59:24;11.43;;;9.27;;
12780;SDS011;6454;43.304;24.344;2023-01-28T01:01:51;11.00;;;9.13;;
12780;SDS011;6454;43.304;24.344;2023-01-28T01:04:18;11.47;;;9.70;;
12780;SDS011;6454;43.304;24.344;2023-01-28T01:06:50;11.43;;;9.00;;
12780;SDS011;6454;43.304;24.344;2023-01-28T01:09:17;14.47;;;10.57;;
12780;SDS011;6454;43.304;24.344;2023-01-28T01:11:45;11.63;;;9.37;;
12780;SDS011;6454;43.304;24.344;2023-01-28T01:14:12;11.10;;;9.43;;
12780;SDS011;6454;43.304;24.344;2023-01-28T01:16:39;12.17;;;9.80;;
12780;SDS011;6454;43.304;24.344;2023-01-28T01:19:06;13.20;;;10.00;;
12780;SDS011;6454;43.304;24.344;2023-01-28T01:21:33;13.30;;;10.73;;
12780;SDS011;6454;43.304;24.344;2023-01-28T01:24:00;13.20;;;10.70;;
12780;SDS011;6454;43.304;24.344;2023-01-28T01:26:27;13.90;;;11.23;;
12780;SDS011;6454;43.304;24.344;2023-01-28T01:28:55;15.37;;;12.17;;
12780;SDS011;6454;43.304;24.344;2023-01-28T01:31:22;14.83;;;11.77;;
12780;SDS011;6454;43.304;24.344;2023-01-28T01:33:49;15.50;;;11.50;;
12780;SDS011;6454;43.304;24.344;2023-01-28T01:36:17;13.37;;;10.37;;
12780;SDS011;6454;43.304;24.344;2023-01-28T01:38:46;11.70;;;10.47;;
12780;SDS011;6454;43.304;24.344;2023-01-28T01:41:22;12.73;;;10.53;;
12780;SDS011;6454;43.304;24.344;2023-01-28T01:43:52;12.27;;;10.50;;
12780;SDS011;6454;43.304;24.344;2023-01-28T01:46:22;15.53;;;11.20;;
12780;SDS011;6454;43.304;24.344;2023-01-28T01:49:05;11.30;;;8.83;;
12780;SDS011;6454;43.304;24.344;2023-01-28T01:51:38;11.77;;;9.20;;
12780;SDS011;6454;43.304;24.344;2023-01-28T01:54:05;10.83;;;8.70;;
12780;SDS011;6454;43.304;24.344;2023-01-28T01:56:34;13.53;;;10.43;;
12780;SDS011;6454;43.304;24.344;2023-01-28T01:59:05;11.57;;;8.27;;
12780;SDS011;6454;43.304;24.344;2023-01-28T02:01:37;12.23;;;9.57;;
12780;SDS011;6454;43.304;24.344;2023-01-28T02:04:05;9.77;;;7.53;;
12780;SDS011;6454;43.304;24.344;2023-01-28T02:06:36;10.30;;;7.83;;
12780;SDS011;6454;43.304;24.344;2023-01-28T02:09:06;10.57;;;7.57;;
12780;SDS011;6454;43.304;24.344;2023-01-28T02:11:45;10.47;;;7.67;;
12780;SDS011;6454;43.304;24.344;2023-01-28T02:14:12;9.97;;;7.10;;
12780;SDS011;6454;43.304;24.344;2023-01-28T02:16:41;8.67;;;6.87;;
12780;SDS011;6454;43.304;24.344;2023-01-28T02:19:08;9.73;;;7.60;;
12780;SDS011;6454;43.304;24.344;2023-01-28T02:21:47;8.93;;;6.70;;
12780;SDS011;6454;43.304;24.344;2023-01-28T02:24:36;8.50;;;6.83;;
12780;SDS011;6454;43.304;24.344;2023-01-28T02:27:23;7.43;;;5.43;;
12780;SDS011;6454;43.304;24.344;2023-01-28T02:30:00;8.40;;;6.30;;
12780;SDS011;6454;43.304;24.344;2023-01-28T02:32:33;7.57;;;5.83;;
12780;SDS011;6454;43.304;24.344;2023-01-28T02:35:06;7.30;;;6.00;;
12780;SDS011;6454;43.304;24.344;2023-01-28T02:37:39;6.87;;;5.70;;
12780;SDS011;6454;43.304;24.344;2023-01-28T02:40:13;8.37;;;6.33;;
12780;SDS011;6454;43.304;24.344;2023-01-28T02:42:45;8.17;;;6.70;;
12780;SDS011;6454;43.304;24.344;2023-01-28T02:45:21;9.20;;;6.90;;
12780;SDS011;6454;43.304;24.344;2023-01-28T02:47:49;9.03;;;6.27;;
12780;SDS011;6454;43.304;24.344;2023-01-28T02:50:22;8.53;;;6.63;;
12780;SDS011;6454;43.304;24.344;2023-01-28T02:52:57;9.87;;;7.27;;
12780;SDS011;6454;43.304;24.344;2023-01-28T02:55:52;9.43;;;7.43;;
12780;SDS011;6454;43.304;24.344;2023-01-28T02:58:33;9.80;;;7.97;;
12780;SDS011;6454;43.304;24.344;2023-01-28T03:01:07;9.50;;;7.47;;
12780;SDS011;6454;43.304;24.344;2023-01-28T03:03:42;10.70;;;7.43;;
12780;SDS011;6454;43.304;24.344;2023-01-28T03:06:18;10.57;;;7.50;;
12780;SDS011;6454;43.304;24.344;2023-01-28T03:08:49;10.97;;;8.20;;
12780;SDS011;6454;43.304;24.344;2023-01-28T03:11:38;9.80;;;7.90;;
12780;SDS011;6454;43.304;24.344;2023-01-28T03:14:24;10.90;;;8.27;;
12780;SDS011;6454;43.304;24.344;2023-01-28T03:17:14;12.43;;;9.47;;
12780;SDS011;6454;43.304;24.344;2023-01-28T03:20:02;12.70;;;8.97;;
12780;SDS011;6454;43.304;24.344;2023-01-28T03:22:48;14.17;;;9.57;;
12780;SDS011;6454;43.304;24.344;2023-01-28T03:25:37;12.07;;;8.60;;
12780;SDS011;6454;43.304;24.344;2023-01-28T03:28:24;12.23;;;8.17;;
12780;SDS011;6454;43.304;24.344;2023-01-28T03:31:11;18.13;;;11.47;;
12780;SDS011;6454;43.304;24.344;2023-01-28T03:33:58;20.60;;;13.63;;
12780;SDS011;6454;43.304;24.344;2023-01-28T03:36:44;17.73;;;11.60;;
12780;SDS011;6454;43.304;24.344;2023-01-28T03:39:12;14.97;;;10.90;;
12780;SDS011;6454;43.304;24.344;2023-01-28T03:41:39;17.47;;;11.80;;
12780;SDS011;6454;43.304;24.344;2023-01-28T03:44:06;13.43;;;9.87;;
12780;SDS011;6454;43.304;24.344;2023-01-28T03:46:50;12.50;;;9.40;;
12780;SDS011;6454;43.304;24.344;2023-01-28T03:49:18;12.27;;;9.57;;
12780;SDS011;6454;43.304;24.344;2023-01-28T03:51:45;10.70;;;8.70;;
12780;SDS011;6454;43.304;24.344;2023-01-28T03:54:12;10.17;;;8.27;;
12780;SDS011;6454;43.304;24.344;2023-01-28T03:56:39;9.50;;;7.77;;
12780;SDS011;6454;43.304;24.344;2023-01-28T03:59:06;9.87;;;7.97;;
12780;SDS011;6454;43.304;24.344;2023-01-28T04:01:33;9.90;;;7.97;;
12780;SDS011;6454;43.304;24.344;2023-01-28T04:04:00;9.63;;;8.07;;
12780;SDS011;6454;43.304;24.344;2023-01-28T04:06:28;10.57;;;8.43;;
12780;SDS011;6454;43.304;24.344;2023-01-28T04:08:55;12.17;;;8.73;;
12780;SDS011;6454;43.304;24.344;2023-01-28T04:11:23;12.07;;;9.40;;
12780;SDS011;6454;43.304;24.344;2023-01-28T04:13:50;10.73;;;8.70;;
12780;SDS011;6454;43.304;24.344;2023-01-28T04:16:18;11.97;;;9.60;;
12780;SDS011;6454;43.304;24.344;2023-01-28T04:18:45;10.60;;;8.90;;
12780;SDS011;6454;43.304;24.344;2023-01-28T04:21:12;10.10;;;8.97;;
12780;SDS011;6454;43.304;24.344;2023-01-28T04:23:41;10.73;;;9.07;;
12780;SDS011;6454;43.304;24.344;2023-01-28T04:26:07;11.57;;;9.00;;
12780;SDS011;6454;43.304;24.344;2023-01-28T04:28:34;11.00;;;8.47;;
12780;SDS011;6454;43.304;24.344;2023-01-28T04:31:01;12.33;;;9.10;;
12780;SDS011;6454;43.304;24.344;2023-01-28T04:33:28;11.50;;;9.07;;
12780;SDS011;6454;43.304;24.344;2023-01-28T04:35:55;11.50;;;8.83;;
12780;SDS011;6454;43.304;24.344;2023-01-28T04:38:21;11.33;;;8.73;;
12780;SDS011;6454;43.304;24.344;2023-01-28T04:40:50;10.53;;;8.37;;
12780;SDS011;6454;43.304;24.344;2023-01-28T04:43:17;11.20;;;8.33;;
12780;SDS011;6454;43.304;24.344;2023-01-28T04:45:45;10.00;;;7.63;;
12780;SDS011;6454;43.304;24.344;2023-01-28T04:48:12;9.03;;;7.10;;
12780;SDS011;6454;43.304;24.344;2023-01-28T04:50:39;8.63;;;7.33;;
12780;SDS011;6454;43.304;24.344;2023-01-28T04:53:07;8.40;;;7.50;;
12780;SDS011;6454;43.304;24.344;2023-01-28T04:55:34;9.10;;;7.73;;
12780;SDS011;6454;43.304;24.344;2023-01-28T04:58:02;8.83;;;7.33;;
12780;SDS011;6454;43.304;24.344;2023-01-28T05:00:29;8.60;;;7.70;;
12780;SDS011;6454;43.304;24.344;2023-01-28T05:02:56;8.17;;;7.30;;
12780;SDS011;6454;43.304;24.344;2023-01-28T05:05:23;9.00;;;7.63;;
12780;SDS011;6454;43.304;24.344;2023-01-28T05:07:50;9.40;;;7.20;;
12780;SDS011;6454;43.304;24.344;2023-01-28T05:10:17;8.53;;;7.33;;
12780;SDS011;6454;43.304;24.344;2023-01-28T05:12:46;9.90;;;8.27;;
12780;SDS011;6454;43.304;24.344;2023-01-28T05:15:15;11.27;;;8.93;;
12780;SDS011;6454;43.304;24.344;2023-01-28T05:17:43;11.87;;;9.03;;
12780;SDS011;6454;43.304;24.344;2023-01-28T05:20:11;13.07;;;9.33;;
12780;SDS011;6454;43.304;24.344;2023-01-28T05:22:39;11.17;;;8.77;;
12780;SDS011;6454;43.304;24.344;2023-01-28T05:25:07;10.03;;;8.20;;
12780;SDS011;6454;43.304;24.344;2023-01-28T05:27:34;11.27;;;8.10;;
12780;SDS011;6454;43.304;24.344;2023-01-28T05:30:01;9.50;;;8.07;;
12780;SDS011;6454;43.304;24.344;2023-01-28T05:32:30;10.10;;;8.07;;
12780;SDS011;6454;43.304;24.344;2023-01-28T05:34:57;10.07;;;8.03;;
12780;SDS011;6454;43.304;24.344;2023-01-28T05:37:23;10.90;;;8.83;;
12780;SDS011;6454;43.304;24.344;2023-01-28T05:39:50;11.20;;;8.97;;
12780;SDS011;6454;43.304;24.344;2023-01-28T05:42:17;12.00;;;8.63;;
12780;SDS011;6454;43.304;24.344;2023-01-28T05:44:45;11.37;;;8.77;;
12780;SDS011;6454;43.304;24.344;2023-01-28T05:47:11;13.93;;;9.53;;
12780;SDS011;6454;43.304;24.344;2023-01-28T05:49:40;9.97;;;7.40;;
12780;SDS011;6454;43.304;24.344;2023-01-28T05:52:06;10.73;;;8.37;;
12780;SDS011;6454;43.304;24.344;2023-01-28T05:54:33;9.17;;;6.37;;
12780;SDS011;6454;43.304;24.344;2023-01-28T05:57:00;8.53;;;7.30;;
12780;SDS011;6454;43.304;24.344;2023-01-28T05:59:26;10.53;;;7.67;;
12780;SDS011;6454;43.304;24.344;2023-01-28T06:01:53;11.80;;;8.27;;
12780;SDS011;6454;43.304;24.344;2023-01-28T06:04:20;10.87;;;9.17;;
12780;SDS011;6454;43.304;24.344;2023-01-28T06:06:48;13.10;;;10.33;;
12780;SDS011;6454;43.304;24.344;2023-01-28T06:09:15;14.00;;;10.27;;
12780;SDS011;6454;43.304;24.344;2023-01-28T06:11:42;14.07;;;10.50;;
12780;SDS011;6454;43.304;24.344;2023-01-28T06:14:09;14.70;;;11.43;;
12780;SDS011;6454;43.304;24.344;2023-01-28T06:16:36;13.63;;;11.40;;
12780;SDS011;6454;43.304;24.344;2023-01-28T06:19:03;14.43;;;11.70;;
12780;SDS011;6454;43.304;24.344;2023-01-28T06:21:30;15.40;;;11.90;;
12780;SDS011;6454;43.304;24.344;2023-01-28T06:23:58;13.87;;;11.07;;
12780;SDS011;6454;43.304;24.344;2023-01-28T06:26:25;13.67;;;11.53;;
12780;SDS011;6454;43.304;24.344;2023-01-28T06:28:51;17.30;;;13.93;;
12780;SDS011;6454;43.304;24.344;2023-01-28T06:31:18;16.53;;;12.10;;
12780;SDS011;6454;43.304;24.344;2023-01-28T06:33:45;13.70;;;10.60;;
12780;SDS011;6454;43.304;24.344;2023-01-28T06:36:12;14.40;;;10.77;;
12780;SDS011;6454;43.304;24.344;2023-01-28T06:38:38;12.97;;;10.57;;
12780;SDS011;6454;43.304;24.344;2023-01-28T06:41:06;12.37;;;10.00;;
12780;SDS011;6454;43.304;24.344;2023-01-28T06:43:33;12.97;;;10.30;;
12780;SDS011;6454;43.304;24.344;2023-01-28T06:46:00;12.47;;;9.83;;
12780;SDS011;6454;43.304;24.344;2023-01-28T06:48:27;11.30;;;9.73;;
12780;SDS011;6454;43.304;24.344;2023-01-28T06:50:54;10.30;;;8.10;;
12780;SDS011;6454;43.304;24.344;2023-01-28T06:53:21;9.57;;;7.67;;
12780;SDS011;6454;43.304;24.344;2023-01-28T06:55:48;8.57;;;7.13;;
12780;SDS011;6454;43.304;24.344;2023-01-28T06:58:16;7.10;;;6.40;;
12780;SDS011;6454;43.304;24.344;2023-01-28T07:00:43;7.00;;;6.00;;
12780;SDS011;6454;43.304;24.344;2023-01-28T07:03:09;6.17;;;5.57;;
12780;SDS011;6454;43.304;24.344;2023-01-28T07:05:36;6.30;;;5.63;;
12780;SDS011;6454;43.304;24.344;2023-01-28T07:08:03;6.83;;;5.63;;
12780;SDS011;6454;43.304;24.344;2023-01-28T07:10:30;6.07;;;5.40;;
12780;SDS011;6454;43.304;24.344;2023-01-28T07:12:57;7.43;;;6.53;;
12780;SDS011;6454;43.304;24.344;2023-01-28T07:15:25;5.87;;;5.27;;
12780;SDS011;6454;43.304;24.344;2023-01-28T07:17:52;7.40;;;5.67;;
12780;SDS011;6454;43.304;24.344;2023-01-28T07:20:18;4.83;;;4.33;;
12780;SDS011;6454;43.304;24.344;2023-01-28T07:22:46;4.97;;;4.47;;
12780;SDS011;6454;43.304;24.344;2023-01-28T07:25:13;4.83;;;4.43;;
12780;SDS011;6454;43.304;24.344;2023-01-28T07:27:44;5.13;;;4.40;;
12780;SDS011;6454;43.304;24.344;2023-01-28T07:30:13;5.23;;;4.63;;
12780;SDS011;6454;43.304;24.344;2023-01-28T07:32:42;5.13;;;4.47;;
12780;SDS011;6454;43.304;24.344;2023-01-28T07:35:08;5.70;;;4.40;;
12780;SDS011;6454;43.304;24.344;2023-01-28T07:37:35;5.70;;;4.23;;
12780;SDS011;6454;43.304;24.344;2023-01-28T07:40:02;4.90;;;4.40;;
12780;SDS011;6454;43.304;24.344;2023-01-28T07:42:30;4.50;;;4.10;;
12780;SDS011;6454;43.304;24.344;2023-01-28T07:44:57;4.13;;;3.73;;
12780;SDS011;6454;43.304;24.344;2023-01-28T07:47:23;4.20;;;3.80;;
12780;SDS011;6454;43.304;24.344;2023-01-28T07:49:52;4.80;;;4.27;;
12780;SDS011;6454;43.304;24.344;2023-01-28T07:52:18;4.93;;;4.43;;
12780;SDS011;6454;43.304;24.344;2023-01-28T07:54:45;4.77;;;4.20;;
12780;SDS011;6454;43.304;24.344;2023-01-28T07:57:12;4.37;;;3.97;;
12780;SDS011;6454;43.304;24.344;2023-01-28T07:59:38;4.47;;;3.80;;
12780;SDS011;6454;43.304;24.344;2023-01-28T08:02:08;4.60;;;3.93;;
12780;SDS011;6454;43.304;24.344;2023-01-28T08:04:36;4.07;;;3.50;;
12780;SDS011;6454;43.304;24.344;2023-01-28T08:07:05;3.53;;;3.23;;
12780;SDS011;6454;43.304;24.344;2023-01-28T08:09:32;4.00;;;3.60;;
12780;SDS011;6454;43.304;24.344;2023-01-28T08:12:00;4.30;;;3.90;;
12780;SDS011;6454;43.304;24.344;2023-01-28T08:14:27;4.03;;;3.63;;
12780;SDS011;6454;43.304;24.344;2023-01-28T08:16:54;4.33;;;3.93;;
12780;SDS011;6454;43.304;24.344;2023-01-28T08:19:21;3.87;;;3.50;;
12780;SDS011;6454;43.304;24.344;2023-01-28T08:21:48;3.43;;;3.13;;
12780;SDS011;6454;43.304;24.344;2023-01-28T08:24:16;3.37;;;3.07;;
12780;SDS011;6454;43.304;24.344;2023-01-28T08:26:43;4.13;;;3.37;;
12780;SDS011;6454;43.304;24.344;2023-01-28T08:29:10;3.30;;;3.00;;
12780;SDS011;6454;43.304;24.344;2023-01-28T08:31:37;3.80;;;2.90;;
12780;SDS011;6454;43.304;24.344;2023-01-28T08:34:04;3.80;;;3.17;;
12780;SDS011;6454;43.304;24.344;2023-01-28T08:36:30;3.50;;;3.20;;
12780;SDS011;6454;43.304;24.344;2023-01-28T08:38:57;3.23;;;2.93;;
12780;SDS011;6454;43.304;24.344;2023-01-28T08:41:25;3.57;;;3.27;;
12780;SDS011;6454;43.304;24.344;2023-01-28T08:43:52;3.57;;;3.27;;
12780;SDS011;6454;43.304;24.344;2023-01-28T08:46:19;3.53;;;3.23;;
12780;SDS011;6454;43.304;24.344;2023-01-28T08:48:48;4.47;;;3.60;;
12780;SDS011;6454;43.304;24.344;2023-01-28T08:51:15;3.97;;;3.57;;
12780;SDS011;6454;43.304;24.344;2023-01-28T08:53:41;4.33;;;3.77;;
12780;SDS011;6454;43.304;24.344;2023-01-28T08:56:08;3.43;;;3.13;;
12780;SDS011;6454;43.304;24.344;2023-01-28T08:58:36;3.50;;;3.20;;
12780;SDS011;6454;43.304;24.344;2023-01-28T09:01:04;3.97;;;3.20;;
12780;SDS011;6454;43.304;24.344;2023-01-28T09:03:31;3.60;;;3.30;;
12780;SDS011;6454;43.304;24.344;2023-01-28T09:05:59;5.67;;;3.73;;
12780;SDS011;6454;43.304;24.344;2023-01-28T09:08:26;3.20;;;2.80;;
12780;SDS011;6454;43.304;24.344;2023-01-28T09:10:53;3.03;;;2.73;;
12780;SDS011;6454;43.304;24.344;2023-01-28T09:13:21;3.60;;;2.97;;
12780;SDS011;6454;43.304;24.344;2023-01-28T09:15:49;2.80;;;2.50;;
12780;SDS011;6454;43.304;24.344;2023-01-28T09:18:16;3.20;;;2.70;;
12780;SDS011;6454;43.304;24.344;2023-01-28T09:20:43;3.00;;;2.70;;
12780;SDS011;6454;43.304;24.344;2023-01-28T09:23:10;4.77;;;3.13;;
12780;SDS011;6454;43.304;24.344;2023-01-28T09:25:37;3.90;;;3.10;;
12780;SDS011;6454;43.304;24.344;2023-01-28T09:28:04;3.63;;;3.30;;
12780;SDS011;6454;43.304;24.344;2023-01-28T09:30:31;3.70;;;3.40;;
12780;SDS011;6454;43.304;24.344;2023-01-28T09:33:00;2.83;;;2.60;;
12780;SDS011;6454;43.304;24.344;2023-01-28T09:35:27;2.90;;;2.63;;
12780;SDS011;6454;43.304;24.344;2023-01-28T09:37:55;3.40;;;3.10;;
12780;SDS011;6454;43.304;24.344;2023-01-28T09:40:25;3.40;;;3.10;;
12780;SDS011;6454;43.304;24.344;2023-01-28T09:43:00;3.40;;;3.10;;
12780;SDS011;6454;43.304;24.344;2023-01-28T09:45:37;3.53;;;3.00;;
12780;SDS011;6454;43.304;24.344;2023-01-28T09:48:11;3.17;;;2.87;;
12780;SDS011;6454;43.304;24.344;2023-01-28T09:50:42;3.70;;;3.40;;
12780;SDS011;6454;43.304;24.344;2023-01-28T09:53:15;4.77;;;3.67;;
12780;SDS011;6454;43.304;24.344;2023-01-28T09:55:46;3.60;;;3.30;;
12780;SDS011;6454;43.304;24.344;2023-01-28T09:58:16;3.57;;;3.20;;
12780;SDS011;6454;43.304;24.344;2023-01-28T10:00:46;3.57;;;3.17;;
12780;SDS011;6454;43.304;24.344;2023-01-28T10:03:35;3.87;;;3.47;;
12780;SDS011;6454;43.304;24.344;2023-01-28T10:06:13;3.23;;;2.93;;
12780;SDS011;6454;43.304;24.344;2023-01-28T10:11:42;3.83;;;3.43;;
12780;SDS011;6454;43.304;24.344;2023-01-28T10:17:15;3.67;;;3.00;;
12780;SDS011;6454;43.304;24.344;2023-01-28T10:19:45;3.57;;;3.27;;
12780;SDS011;6454;43.304;24.344;2023-01-28T10:22:16;3.77;;;3.30;;
12780;SDS011;6454;43.304;24.344;2023-01-28T10:24:47;4.47;;;3.90;;
12780;SDS011;6454;43.304;24.344;2023-01-28T10:27:20;4.67;;;4.17;;
12780;SDS011;6454;43.304;24.344;2023-01-28T10:29:49;5.30;;;4.70;;
12780;SDS011;6454;43.304;24.344;2023-01-28T10:32:20;5.03;;;4.53;;
12780;SDS011;6454;43.304;24.344;2023-01-28T10:34:53;5.40;;;4.90;;
12780;SDS011;6454;43.304;24.344;2023-01-28T10:37:20;5.60;;;4.83;;
12780;SDS011;6454;43.304;24.344;2023-01-28T10:39:47;5.20;;;4.70;;
12780;SDS011;6454;43.304;24.344;2023-01-28T10:42:16;6.03;;;4.80;;
12780;SDS011;6454;43.304;24.344;2023-01-28T10:44:51;5.23;;;4.73;;
12780;SDS011;6454;43.304;24.344;2023-01-28T10:47:19;5.77;;;5.17;;
12780;SDS011;6454;43.304;24.344;2023-01-28T10:49:56;4.77;;;4.13;;
12780;SDS011;6454;43.304;24.344;2023-01-28T10:52:24;4.90;;;4.43;;
12780;SDS011;6454;43.304;24.344;2023-01-28T10:55:01;4.87;;;4.37;;
12780;SDS011;6454;43.304;24.344;2023-01-28T10:57:31;4.90;;;4.40;;
12780;SDS011;6454;43.304;24.344;2023-01-28T11:00:08;5.30;;;4.03;;
12780;SDS011;6454;43.304;24.344;2023-01-28T11:02:36;5.00;;;4.13;;
12780;SDS011;6454;43.304;24.344;2023-01-28T11:05:06;5.50;;;4.33;;
12780;SDS011;6454;43.304;24.344;2023-01-28T11:07:41;6.07;;;5.13;;
12780;SDS011;6454;43.304;24.344;2023-01-28T11:10:22;5.50;;;4.90;;
12780;SDS011;6454;43.304;24.344;2023-01-28T11:12:54;5.97;;;4.83;;
12780;SDS011;6454;43.304;24.344;2023-01-28T11:15:22;5.60;;;5.00;;
12780;SDS011;6454;43.304;24.344;2023-01-28T11:17:50;5.40;;;4.77;;
12780;SDS011;6454;43.304;24.344;2023-01-28T11:20:23;6.97;;;5.80;;
12780;SDS011;6454;43.304;24.344;2023-01-28T11:22:53;6.77;;;6.07;;
12780;SDS011;6454;43.304;24.344;2023-01-28T11:25:23;7.87;;;6.00;;
12780;SDS011;6454;43.304;24.344;2023-01-28T11:27:54;7.77;;;6.00;;
12780;SDS011;6454;43.304;24.344;2023-01-28T11:30:22;7.30;;;6.33;;
12780;SDS011;6454;43.304;24.344;2023-01-28T11:32:58;7.17;;;6.33;;
12780;SDS011;6454;43.304;24.344;2023-01-28T11:35:33;9.07;;;7.00;;
12780;SDS011;6454;43.304;24.344;2023-01-28T11:38:00;7.57;;;6.17;;
12780;SDS011;6454;43.304;24.344;2023-01-28T11:40:27;7.10;;;6.20;;
12780;SDS011;6454;43.304;24.344;2023-01-28T11:42:54;7.60;;;6.53;;
12780;SDS011;6454;43.304;24.344;2023-01-28T11:45:26;7.30;;;6.17;;
12780;SDS011;6454;43.304;24.344;2023-01-28T11:48:09;7.03;;;6.00;;
12780;SDS011;6454;43.304;24.344;2023-01-28T11:50:55;6.80;;;6.10;;
12780;SDS011;6454;43.304;24.344;2023-01-28T11:53:41;6.93;;;5.80;;
12780;SDS011;6454;43.304;24.344;2023-01-28T11:56:38;6.57;;;5.83;;
12780;SDS011;6454;43.304;24.344;2023-01-28T11:59:34;8.23;;;6.70;;
12780;SDS011;6454;43.304;24.344;2023-01-28T12:02:19;6.90;;;6.20;;
12780;SDS011;6454;43.304;24.344;2023-01-28T12:05:03;7.10;;;5.90;;
12780;SDS011;6454;43.304;24.344;2023-01-28T12:07:44;6.80;;;6.20;;
12780;SDS011;6454;43.304;24.344;2023-01-28T12:10:21;6.80;;;5.57;;
12780;SDS011;6454;43.304;24.344;2023-01-28T12:13:00;7.17;;;6.40;;
12780;SDS011;6454;43.304;24.344;2023-01-28T12:16:09;6.57;;;5.73;;
12780;SDS011;6454;43.304;24.344;2023-01-28T12:19:01;6.10;;;5.50;;
12780;SDS011;6454;43.304;24.344;2023-01-28T12:21:41;6.00;;;5.40;;
12780;SDS011;6454;43.304;24.344;2023-01-28T12:24:25;7.00;;;5.53;;
12780;SDS011;6454;43.304;24.344;2023-01-28T12:27:04;5.83;;;5.23;;
12780;SDS011;6454;43.304;24.344;2023-01-28T12:29:40;6.23;;;5.63;;
12780;SDS011;6454;43.304;24.344;2023-01-28T12:32:21;5.83;;;5.33;;
12780;SDS011;6454;43.304;24.344;2023-01-28T12:35:14;5.63;;;5.10;;
12780;SDS011;6454;43.304;24.344;2023-01-28T12:37:58;5.30;;;4.80;;
12780;SDS011;6454;43.304;24.344;2023-01-28T12:43:18;4.73;;;4.30;;
12780;SDS011;6454;43.304;24.344;2023-01-28T12:45:48;5.23;;;4.73;;
12780;SDS011;6454;43.304;24.344;2023-01-28T12:48:21;4.97;;;4.47;;
12780;SDS011;6454;43.304;24.344;2023-01-28T12:50:53;4.73;;;4.33;;
12780;SDS011;6454;43.304;24.344;2023-01-28T12:53:27;4.97;;;4.40;;
12780;SDS011;6454;43.304;24.344;2023-01-28T12:56:04;5.50;;;4.83;;
12780;SDS011;6454;43.304;24.344;2023-01-28T12:58:40;5.10;;;4.60;;
12780;SDS011;6454;43.304;24.344;2023-01-28T13:01:13;5.50;;;5.00;;
12780;SDS011;6454;43.304;24.344;2023-01-28T13:03:47;4.93;;;4.43;;
12780;SDS011;6454;43.304;24.344;2023-01-28T13:06:18;5.67;;;4.50;;
12780;SDS011;6454;43.304;24.344;2023-01-28T13:08:55;5.67;;;5.07;;
12780;SDS011;6454;43.304;24.344;2023-01-28T13:11:31;4.90;;;4.50;;
12780;SDS011;6454;43.304;24.344;2023-01-28T13:14:00;4.90;;;4.50;;
12780;SDS011;6454;43.304;24.344;2023-01-28T13:16:28;4.77;;;4.37;;
12780;SDS011;6454;43.304;24.344;2023-01-28T13:19:03;5.30;;;4.80;;
12780;SDS011;6454;43.304;24.344;2023-01-28T13:21:32;5.20;;;4.70;;
12780;SDS011;6454;43.304;24.344;2023-01-28T13:24:04;5.23;;;4.50;;
12780;SDS011;6454;43.304;24.344;2023-01-28T13:26:45;5.07;;;4.50;;
12780;SDS011;6454;43.304;24.344;2023-01-28T13:29:18;5.00;;;4.50;;
12780;SDS011;6454;43.304;24.344;2023-01-28T13:31:55;5.73;;;5.20;;
12780;SDS011;6454;43.304;24.344;2023-01-28T13:34:33;5.17;;;4.67;;
12780;SDS011;6454;43.304;24.344;2023-01-28T13:37:06;5.53;;;5.03;;
12780;SDS011;6454;43.304;24.344;2023-01-28T13:39:47;4.80;;;4.30;;
12780;SDS011;6454;43.304;24.344;2023-01-28T13:42:22;4.67;;;4.23;;
12780;SDS011;6454;43.304;24.344;2023-01-28T13:44:50;5.70;;;4.37;;
12780;SDS011;6454;43.304;24.344;2023-01-28T13:47:22;5.30;;;4.80;;
12780;SDS011;6454;43.304;24.344;2023-01-28T13:49:55;5.30;;;4.60;;
12780;SDS011;6454;43.304;24.344;2023-01-28T13:52:27;5.03;;;4.57;;
12780;SDS011;6454;43.304;24.344;2023-01-28T13:54:58;5.50;;;4.60;;
12780;SDS011;6454;43.304;24.344;2023-01-28T13:57:45;6.13;;;4.93;;
12780;SDS011;6454;43.304;24.344;2023-01-28T14:00:45;5.17;;;4.67;;
12780;SDS011;6454;43.304;24.344;2023-01-28T14:06:58;5.30;;;4.80;;
12780;SDS011;6454;43.304;24.344;2023-01-28T14:15:31;7.63;;;4.77;;
12780;SDS011;6454;43.304;24.344;2023-01-28T14:18:13;4.87;;;4.43;;
12780;SDS011;6454;43.304;24.344;2023-01-28T14:20:46;5.43;;;4.47;;
12780;SDS011;6454;43.304;24.344;2023-01-28T14:23:15;4.43;;;4.03;;
12780;SDS011;6454;43.304;24.344;2023-01-28T14:25:49;6.40;;;5.40;;
12780;SDS011;6454;43.304;24.344;2023-01-28T14:28:32;7.37;;;6.20;;
12780;SDS011;6454;43.304;24.344;2023-01-28T14:31:05;5.50;;;4.90;;
12780;SDS011;6454;43.304;24.344;2023-01-28T14:33:36;4.80;;;4.30;;
12780;SDS011;6454;43.304;24.344;2023-01-28T14:36:03;5.87;;;5.13;;
12780;SDS011;6454;43.304;24.344;2023-01-28T14:38:31;5.40;;;4.70;;
12780;SDS011;6454;43.304;24.344;2023-01-28T14:41:04;4.90;;;4.40;;
12780;SDS011;6454;43.304;24.344;2023-01-28T14:43:32;5.37;;;4.67;;
12780;SDS011;6454;43.304;24.344;2023-01-28T14:46:07;5.70;;;5.00;;
12780;SDS011;6454;43.304;24.344;2023-01-28T14:48:45;6.00;;;5.30;;
12780;SDS011;6454;43.304;24.344;2023-01-28T14:51:27;6.00;;;5.40;;
12780;SDS011;6454;43.304;24.344;2023-01-28T14:54:16;6.77;;;6.00;;
12780;SDS011;6454;43.304;24.344;2023-01-28T14:57:03;6.80;;;6.10;;
12780;SDS011;6454;43.304;24.344;2023-01-28T14:59:42;6.03;;;5.43;;
12780;SDS011;6454;43.304;24.344;2023-01-28T15:02:16;6.37;;;5.53;;
12780;SDS011;6454;43.304;24.344;2023-01-28T15:04:44;6.50;;;5.80;;
12780;SDS011;6454;43.304;24.344;2023-01-28T15:07:15;6.57;;;5.87;;
12780;SDS011;6454;43.304;24.344;2023-01-28T15:09:43;6.33;;;5.70;;
12780;SDS011;6454;43.304;24.344;2023-01-28T15:12:10;6.77;;;6.07;;
12780;SDS011;6454;43.304;24.344;2023-01-28T15:14:38;7.23;;;6.47;;
12780;SDS011;6454;43.304;24.344;2023-01-28T15:17:13;7.70;;;6.93;;
12780;SDS011;6454;43.304;24.344;2023-01-28T15:19:49;7.73;;;7.00;;
12780;SDS011;6454;43.304;24.344;2023-01-28T15:22:17;8.13;;;7.30;;
12780;SDS011;6454;43.304;24.344;2023-01-28T15:24:49;8.03;;;7.23;;